Time;durP1;ratioP1;P1;durP2;ratioP2;P2;SDS_P1;SDS_P2;PMS_P1;PMS_P2;Temp;Humidity;BMP_temperature;BMP_pressure;BME280_temperature;BME280_humidity;BME280_pressure;Samples;Min_cycle;Max_cycle;Signal;HPM_P1;HPM_P2
2021/03/29 00:02:00;;;;;;;6.93;1.40;;;10.90;99.90;;;10.70;71.96;102379.63;5025209;28;20036;-62
2021/03/29 00:04:27;;;;;;;4.18;1.23;;;10.80;99.90;;;10.62;71.96;102384.16;4998397;28;20045;-68
2021/03/29 00:06:57;;;;;;;8.27;1.50;;;10.80;99.90;;;10.64;71.85;102384.84;5029704;28;20140;-60
2021/03/29 00:09:25;;;;;;;13.68;1.63;;;10.80;99.90;;;10.63;71.96;102389.44;5011361;28;20392;-61
2021/03/29 00:11:54;;;;;;;10.27;1.80;;;10.80;99.90;;;10.63;72.25;102391.31;5044746;28;20038;-61
2021/03/29 00:14:22;;;;;;;6.38;1.50;;;10.80;99.90;;;10.57;72.46;102364.75;5016115;28;20490;-67
2021/03/29 00:16:49;;;;;;;8.07;2.58;;;10.70;99.90;;;10.49;72.58;102382.75;5024595;28;20030;-65
2021/03/29 00:19:15;;;;;;;4.07;0.95;;;10.70;99.90;;;10.51;72.57;102383.44;5030092;28;20056;-65
2021/03/29 00:21:41;;;;;;;8.52;1.75;;;10.70;99.90;;;10.51;72.93;102388.03;5028993;28;20042;-66
2021/03/29 00:24:08;;;;;;;5.65;1.65;;;10.60;99.90;;;10.43;73.51;102386.13;5021744;28;20064;-63
2021/03/29 00:26:36;;;;;;;10.30;1.75;;;10.60;99.90;;;10.38;73.76;102391.22;5012078;28;20033;-62
2021/03/29 00:29:04;;;;;;;7.45;2.00;;;10.60;99.90;;;10.38;73.45;102374.88;5030606;28;20042;-61
2021/03/29 00:31:30;;;;;;;6.53;1.65;;;10.50;99.90;;;10.35;73.86;102371.59;5011631;28;20053;-61
2021/03/29 00:33:57;;;;;;;11.13;1.60;;;10.50;99.90;;;10.39;73.57;102382.00;5023642;28;20132;-63
2021/03/29 00:36:25;;;;;;;4.35;1.10;;;10.50;99.90;;;10.35;74.16;102375.19;5027987;28;20029;-62
2021/03/29 00:38:53;;;;;;;5.82;1.63;;;10.50;99.90;;;10.30;74.26;102382.97;5011922;28;20436;-61
2021/03/29 00:41:20;;;;;;;8.00;2.35;;;10.40;99.90;;;10.22;74.83;102384.78;5013392;28;20045;-62
2021/03/29 00:43:47;;;;;;;7.50;1.83;;;10.50;99.90;;;10.27;74.85;102379.75;5019961;28;20059;-63
2021/03/29 00:46:17;;;;;;;10.77;1.30;;;10.40;99.90;;;10.24;74.87;102363.72;5024122;28;20032;-63
2021/03/29 00:48:45;;;;;;;8.52;1.95;;;10.40;99.90;;;10.28;74.92;102373.25;5012825;28;20041;-62
2021/03/29 00:51:18;;;;;;;10.35;1.70;;;10.40;99.90;;;10.23;75.26;102373.75;5009426;28;20034;-60
2021/03/29 00:53:54;;;;;;;6.23;1.47;;;10.40;99.90;;;10.15;75.37;102366.38;5044505;28;20397;-61
2021/03/29 00:56:22;;;;;;;9.82;2.53;;;10.30;99.90;;;10.14;75.54;102370.09;5027927;28;20338;-60
2021/03/29 00:58:50;;;;;;;9.82;1.65;;;10.30;99.90;;;10.18;75.73;102392.41;5010606;28;20408;-60
2021/03/29 01:01:43;;;;;;;8.18;1.65;;;10.30;99.90;;;10.11;75.81;102397.63;5025377;28;20034;-61
2021/03/29 01:04:09;;;;;;;13.60;2.58;;;10.30;99.90;;;9.97;76.99;102405.50;5024689;28;20045;-61
2021/03/29 01:06:43;;;;;;;6.45;1.92;;;10.20;99.90;;;10.07;76.65;102407.09;5043090;28;20529;-63
2021/03/29 01:09:27;;;;;;;12.05;1.50;;;10.20;99.90;;;10.01;76.70;102406.91;5022873;28;20029;-70
2021/03/29 01:12:01;;;;;;;8.13;2.88;;;10.20;99.90;;;10.00;77.09;102394.31;5028220;28;20041;-62
2021/03/29 01:14:33;;;;;;;7.18;2.33;;;10.20;99.90;;;9.86;77.68;102403.03;5026019;28;20507;-64
2021/03/29 01:17:05;;;;;;;9.27;1.77;;;10.10;99.90;;;9.90;77.29;102396.25;5023510;28;20075;-66
2021/03/29 01:19:46;;;;;;;7.53;1.60;;;10.10;99.90;;;9.92;77.25;102405.13;5025321;28;20400;-63
2021/03/29 01:22:25;;;;;;;12.73;1.83;;;10.10;99.90;;;9.82;77.87;102403.31;5024756;28;20034;-66
2021/03/29 01:25:12;;;;;;;8.85;1.67;;;10.00;99.90;;;9.82;77.57;102397.88;5029652;28;20060;-70
2021/03/29 01:27:48;;;;;;;8.38;1.75;;;10.00;99.90;;;9.72;77.91;102399.84;5026367;28;20040;-67
2021/03/29 01:30:15;;;;;;;5.32;1.50;;;9.90;99.90;;;9.66;78.91;102403.22;5022916;28;20029;-70
2021/03/29 01:32:45;;;;;;;7.13;2.03;;;9.80;99.90;;;9.60;79.18;102402.97;5010064;28;20764;-70
2021/03/29 01:35:43;;;;;;;12.02;1.95;;;9.80;99.90;;;9.60;79.11;102406.53;5030832;28;20046;-71
2021/03/29 01:38:10;;;;;;;9.02;1.90;;;9.70;99.90;;;9.51;79.30;102399.31;5011151;28;20034;-72
2021/03/29 01:40:39;;;;;;;13.18;3.65;;;9.70;99.90;;;9.47;80.14;102408.81;4996483;28;20033;-70
2021/03/29 01:43:06;;;;;;;14.82;3.42;;;9.70;99.90;;;9.38;80.53;102398.84;4993126;28;20052;-74
2021/03/29 01:45:34;;;;;;;12.40;3.10;;;9.60;99.90;;;9.36;80.89;102403.59;5020317;28;20168;-71
2021/03/29 01:48:04;;;;;;;9.40;2.00;;;9.60;99.90;;;9.43;80.20;102404.69;5001164;28;20408;-71
2021/03/29 01:50:34;;;;;;;7.32;2.83;;;9.60;99.90;;;9.33;80.43;102412.06;5028071;28;20044;-73
2021/03/29 01:53:01;;;;;;;8.60;1.67;;;9.50;99.90;;;9.39;80.93;102405.97;5042203;28;20077;-61
2021/03/29 01:55:30;;;;;;;11.98;2.28;;;9.50;99.90;;;9.30;81.47;102406.91;5029028;28;20064;-61
2021/03/29 01:57:56;;;;;;;6.40;2.10;;;9.50;99.90;;;9.27;81.69;102407.22;5026533;28;20531;-62
2021/03/29 02:00:41;;;;;;;14.23;2.80;;;9.40;99.90;;;9.23;82.22;102412.13;5026963;28;20041;-61
2021/03/29 02:03:09;;;;;;;6.35;1.70;;;9.40;99.90;;;9.25;82.22;102414.69;5009922;28;20041;-61
2021/03/29 02:05:35;;;;;;;12.25;2.50;;;9.40;99.90;;;9.22;82.75;102406.84;5024007;28;20038;-64
2021/03/29 02:08:03;;;;;;;11.30;2.50;;;9.40;99.90;;;9.26;82.16;102400.06;5009706;28;20037;-63
2021/03/29 02:10:33;;;;;;;5.85;2.00;;;9.40;99.90;;;9.20;82.04;102396.13;5026968;28;20662;-64
2021/03/29 02:13:05;;;;;;;11.73;2.53;;;9.40;99.90;;;9.20;82.43;102406.13;5027596;28;20561;-66
2021/03/29 02:15:32;;;;;;;14.85;2.22;;;9.40;99.90;;;9.23;83.15;102395.81;5011287;28;20065;-66
2021/03/29 02:18:01;;;;;;;10.73;2.15;;;9.40;99.90;;;9.16;83.66;102404.72;5004463;28;20061;-62
2021/03/29 02:20:35;;;;;;;13.43;3.08;;;9.30;99.90;;;9.16;83.64;102389.28;5025652;28;20037;-64
2021/03/29 02:23:02;;;;;;;8.75;2.47;;;9.40;99.90;;;9.23;83.09;102390.38;5026567;28;20045;-66
2021/03/29 02:25:31;;;;;;;12.93;1.77;;;9.30;99.90;;;9.25;82.95;102398.38;5012347;28;20050;-65
2021/03/29 02:28:04;;;;;;;9.73;2.13;;;9.30;99.90;;;9.25;83.02;102387.50;4994743;28;20140;-63
2021/03/29 02:30:39;;;;;;;8.43;2.10;;;9.30;99.90;;;9.18;83.68;102403.56;5019068;28;20029;-69
2021/03/29 02:33:08;;;;;;;15.40;3.20;;;9.30;99.90;;;9.13;83.70;102392.31;5025498;28;20041;-65
2021/03/29 02:35:36;;;;;;;7.78;2.05;;;9.40;99.90;;;9.17;83.71;102395.56;5009586;28;20045;-61
2021/03/29 02:38:06;;;;;;;10.10;2.00;;;9.30;99.90;;;9.22;84.07;102399.53;5011467;28;20032;-61
2021/03/29 02:40:32;;;;;;;11.43;2.20;;;9.30;99.90;;;9.23;83.53;102394.97;5025498;28;20109;-63
2021/03/29 02:43:02;;;;;;;9.57;2.58;;;9.30;99.90;;;9.20;83.88;102401.53;5011412;28;20054;-62
2021/03/29 02:45:38;;;;;;;8.55;2.15;;;9.30;99.90;;;9.20;83.91;102406.13;5030584;28;20512;-63
2021/03/29 02:48:11;;;;;;;14.82;2.35;;;9.30;99.90;;;9.21;84.05;102396.97;5027179;28;20087;-63
2021/03/29 02:50:41;;;;;;;8.75;2.15;;;9.30;99.90;;;9.18;84.54;102408.13;5005098;28;20033;-60
2021/03/29 02:53:21;;;;;;;7.55;2.67;;;9.30;99.90;;;9.18;84.36;102408.13;5027241;28;20400;-66
2021/03/29 02:55:48;;;;;;;11.27;2.80;;;9.30;99.90;;;9.17;84.69;102399.13;5026126;28;20488;-62
2021/03/29 02:58:19;;;;;;;13.95;2.28;;;9.30;99.90;;;9.15;84.43;102397.56;5027366;28;20029;-66
2021/03/29 03:00:45;;;;;;;17.52;3.15;;;9.30;99.90;;;9.10;84.82;102401.63;5008579;28;20435;-61
2021/03/29 03:03:13;;;;;;;13.40;2.65;;;9.30;99.90;;;9.04;85.84;102396.78;5009177;28;20112;-62
2021/03/29 03:05:39;;;;;;;9.50;1.98;;;9.30;99.90;;;9.07;85.46;102401.91;5028115;28;20419;-71
2021/03/29 03:08:07;;;;;;;15.10;2.08;;;9.20;99.90;;;9.10;85.41;102393.47;5012280;28;20042;-71
2021/03/29 03:10:35;;;;;;;10.55;2.30;;;9.30;99.90;;;9.12;85.60;102397.91;5010065;28;20041;-70
2021/03/29 03:13:07;;;;;;;8.15;1.73;;;9.20;99.90;;;9.13;85.92;102399.59;5026279;28;20029;-70
2021/03/29 03:15:35;;;;;;;11.05;2.72;;;9.30;99.90;;;9.17;85.39;102377.41;5009260;28;20033;-69
2021/03/29 03:18:05;;;;;;;10.23;1.83;;;9.30;99.90;;;9.10;85.74;102395.31;5027293;28;20557;-73
2021/03/29 03:20:33;;;;;;;11.23;1.85;;;9.30;99.90;;;9.04;86.67;102382.34;5030994;28;20038;-69
2021/03/29 03:23:09;;;;;;;9.65;2.08;;;9.30;99.90;;;9.13;86.14;102377.88;5030784;28;20041;-68
2021/03/29 03:25:37;;;;;;;12.68;2.10;;;9.30;99.90;;;9.19;86.05;102385.41;5027719;28;20041;-69
2021/03/29 03:28:13;;;;;;;9.50;1.77;;;9.30;99.90;;;9.13;85.95;102396.88;5031116;28;20038;-70
2021/03/29 03:30:43;;;;;;;6.18;1.95;;;9.30;99.90;;;9.18;85.98;102399.97;5009126;28;20026;-69
2021/03/29 03:33:13;;;;;;;8.43;1.70;;;9.30;99.90;;;9.24;86.03;102402.09;5010884;28;20428;-70
2021/03/29 03:35:40;;;;;;;11.98;2.92;;;9.30;99.90;;;9.23;86.16;102405.81;5011756;28;20041;-69
2021/03/29 03:38:22;;;;;;;10.45;2.90;;;9.30;99.90;;;9.25;85.75;102398.38;5031488;28;20045;-73
2021/03/29 03:40:58;;;;;;;9.95;2.38;;;9.30;99.90;;;9.20;85.95;102406.13;5031502;28;20029;-74
2021/03/29 03:43:27;;;;;;;17.67;3.42;;;9.40;99.90;;;9.24;85.79;102412.97;5023621;28;20062;-70
2021/03/29 03:46:22;;;;;;;11.70;2.13;;;9.40;99.90;;;9.26;85.71;102411.78;5009011;28;20037;-74
2021/03/29 03:48:49;;;;;;;10.68;2.22;;;9.40;99.90;;;9.29;85.60;102416.94;5023630;28;20040;-71
2021/03/29 03:51:16;;;;;;;12.52;2.65;;;9.40;99.90;;;9.26;85.47;102405.50;5010608;28;20095;-68
2021/03/29 03:53:43;;;;;;;11.18;3.20;;;9.40;99.90;;;9.32;85.66;102404.91;5045592;28;20103;-70
2021/03/29 03:56:10;;;;;;;7.53;2.15;;;9.40;99.90;;;9.31;85.60;102405.91;5029690;28;20152;-70
2021/03/29 03:58:36;;;;;;;10.75;3.10;;;9.40;99.90;;;9.28;86.18;102403.50;5030365;28;20022;-68
2021/03/29 04:01:05;;;;;;;5.30;1.60;;;9.40;99.90;;;9.29;86.03;102402.47;5027072;28;20040;-70
2021/03/29 04:03:31;;;;;;;10.75;2.22;;;9.50;99.90;;;9.29;85.81;102388.91;5029561;28;20120;-69
2021/03/29 04:05:58;;;;;;;6.32;1.67;;;9.50;99.90;;;9.31;86.47;102409.47;4974223;28;20152;-70
2021/03/29 04:08:24;;;;;;;9.43;3.25;;;9.50;99.90;;;9.38;85.56;102398.84;5040379;28;20033;-74
2021/03/29 04:10:54;;;;;;;20.73;2.45;;;9.50;99.90;;;9.35;86.07;102404.59;5027050;28;20107;-70
2021/03/29 04:13:27;;;;;;;11.00;2.15;;;9.50;99.90;;;9.34;86.24;102403.75;5026559;28;20029;-71
2021/03/29 04:15:55;;;;;;;9.80;1.80;;;9.50;99.90;;;9.33;86.39;102401.19;5045402;28;20492;-69
2021/03/29 04:18:21;;;;;;;11.18;3.50;;;9.50;99.90;;;9.39;86.06;102411.41;5014033;28;20061;-69
2021/03/29 04:20:49;;;;;;;10.88;2.13;;;9.50;99.90;;;9.35;86.75;102399.16;5015076;28;20108;-70
2021/03/29 04:23:17;;;;;;;12.88;2.83;;;9.50;99.90;;;9.37;86.13;102397.97;5026686;28;20034;-70
2021/03/29 04:25:43;;;;;;;12.68;2.05;;;9.50;99.90;;;9.35;86.92;102405.47;5043420;28;20561;-71
2021/03/29 04:28:10;;;;;;;14.23;2.13;;;9.50;99.90;;;9.33;86.64;102390.31;4993805;28;20054;-70
2021/03/29 04:30:36;;;;;;;10.07;2.13;;;9.50;99.90;;;9.34;86.81;102394.75;5026437;28;20485;-69
2021/03/29 04:33:04;;;;;;;10.48;3.83;;;9.50;99.90;;;9.43;85.84;102391.94;4996692;28;20041;-70
2021/03/29 04:35:31;;;;;;;13.63;2.13;;;9.50;99.90;;;9.41;86.63;102393.97;5027426;28;20044;-69
2021/03/29 04:37:56;;;;;;;9.40;1.88;;;9.50;99.90;;;9.39;86.43;102374.22;5029541;28;20038;-68
2021/03/29 04:40:25;;;;;;;8.90;1.70;;;9.60;99.90;;;9.44;86.17;102401.81;5012244;28;20041;-69
2021/03/29 04:42:53;;;;;;;9.77;2.10;;;9.60;99.90;;;9.45;86.01;102399.94;5030810;28;20591;-70
2021/03/29 04:45:21;;;;;;;16.15;3.85;;;9.60;99.90;;;9.62;85.54;102390.91;5012489;28;20543;-69
2021/03/29 04:47:47;;;;;;;13.23;4.15;;;9.60;99.90;;;9.57;85.97;102404.16;5009263;28;20036;-70
2021/03/29 04:50:15;;;;;;;17.42;2.78;;;9.70;99.90;;;9.56;85.85;102402.44;5030423;28;20044;-74
2021/03/29 04:52:42;;;;;;;11.65;2.40;;;9.60;99.90;;;9.58;85.94;102397.69;5029432;28;20041;-73
2021/03/29 04:55:09;;;;;;;6.65;2.13;;;9.70;99.90;;;9.45;86.14;102405.38;5027144;28;20052;-73
2021/03/29 04:57:35;;;;;;;7.65;2.30;;;9.60;99.90;;;9.37;87.17;102397.97;5024207;28;20084;-70
2021/03/29 05:00:02;;;;;;;11.57;1.80;;;9.60;99.90;;;9.40;87.14;102418.56;5024692;28;20148;-71
2021/03/29 05:02:28;;;;;;;13.18;2.67;;;9.60;99.90;;;9.51;86.78;102410.19;5028709;28;20029;-70
2021/03/29 05:04:54;;;;;;;8.82;1.95;;;9.60;99.90;;;9.41;87.39;102417.56;5013914;28;20120;-71
2021/03/29 05:07:20;;;;;;;13.43;3.13;;;9.50;99.90;;;9.43;86.96;102401.97;5009251;28;20120;-72
2021/03/29 05:09:45;;;;;;;10.43;2.42;;;9.50;99.90;;;9.43;87.18;102412.84;5007190;28;20942;-72
2021/03/29 05:12:13;;;;;;;10.07;2.55;;;9.60;99.90;;;9.35;88.13;102426.34;5046773;28;20484;-72
2021/03/29 05:14:40;;;;;;;17.17;3.13;;;9.50;99.90;;;9.35;87.90;102420.91;5030362;28;20053;-74
2021/03/29 05:17:08;;;;;;;17.63;3.75;;;9.50;99.90;;;9.22;88.92;102432.16;5041728;28;20032;-73
2021/03/29 05:19:34;;;;;;;13.52;3.72;;;9.40;99.90;;;9.23;89.31;102419.41;5010933;28;20127;-72
2021/03/29 05:22:01;;;;;;;17.23;2.80;;;9.40;99.90;;;9.26;89.22;102422.66;5013864;28;20500;-71
2021/03/29 05:24:27;;;;;;;10.48;3.80;;;9.40;99.90;;;9.27;89.21;102426.22;5029112;28;20033;-71
2021/03/29 05:26:54;;;;;;;9.85;2.83;;;9.40;99.90;;;9.24;89.17;102432.84;5020423;28;20073;-69
2021/03/29 05:29:27;;;;;;;16.98;3.40;;;9.30;99.90;;;9.20;89.51;102428.72;5023728;28;20117;-69
2021/03/29 05:31:56;;;;;;;14.07;3.67;;;9.40;99.90;;;9.26;89.78;102440.81;5025949;28;20037;-64
2021/03/29 05:34:23;;;;;;;12.63;2.17;;;9.30;99.90;;;9.32;89.67;102432.94;5026706;28;20041;-63
2021/03/29 05:36:50;;;;;;;15.90;3.60;;;9.40;99.90;;;9.28;90.16;102436.94;4992558;28;20689;-63
2021/03/29 05:39:15;;;;;;;9.43;2.13;;;9.30;99.90;;;9.28;90.11;102430.66;5027982;28;20038;-65
2021/03/29 05:41:43;;;;;;;13.48;3.83;;;9.40;99.90;;;9.29;89.64;102448.69;5010798;28;20475;-65
2021/03/29 05:44:11;;;;;;;13.30;2.58;;;9.40;99.90;;;9.34;89.87;102449.94;5028042;28;20492;-66
2021/03/29 05:46:39;;;;;;;13.05;2.13;;;9.40;99.90;;;9.40;89.70;102456.63;5026826;28;20496;-62
2021/03/29 05:49:06;;;;;;;10.07;4.20;;;9.50;99.90;;;9.45;89.43;102465.19;5019756;28;20045;-63
2021/03/29 05:51:37;;;;;;;14.38;2.40;;;9.50;99.90;;;9.56;88.75;102470.41;5015202;28;20399;-66
2021/03/29 05:54:05;;;;;;;11.38;2.90;;;9.60;99.90;;;9.66;88.74;102473.91;5022935;28;20037;-63
2021/03/29 05:56:32;;;;;;;12.77;3.08;;;9.70;99.90;;;9.87;87.54;102475.44;5009757;28;20068;-62
2021/03/29 06:01:57;;;;;;;10.68;1.95;;;10.10;99.90;;;10.86;82.87;102477.75;5007548;28;20041;-64
2021/03/29 06:04:48;;;;;;;6.90;2.33;;;10.50;99.90;;;11.39;79.94;102481.22;5029634;28;20540;-63
2021/03/29 06:07:22;;;;;;;12.77;2.33;;;11.00;99.90;;;11.92;77.51;102484.44;5012801;28;20064;-62
2021/03/29 06:09:49;;;;;;;;;;;11.40;99.90;;;12.68;74.72;102489.50;5030059;28;20038;-62
2021/03/29 06:12:18;;;;;;;12.05;2.72;;;11.90;99.90;;;13.32;71.27;102484.03;5025311;28;19951;-71
2021/03/29 06:14:47;;;;;;;10.35;3.80;;;12.40;99.90;;;13.92;68.51;102486.06;5029830;28;20060;-71
2021/03/29 06:17:23;;;;;;;16.10;2.20;;;12.90;99.90;;;14.41;65.07;102487.41;5029423;28;20030;-72
2021/03/29 06:19:59;;;;;;;19.52;2.50;;;13.40;99.90;;;14.59;64.45;102500.75;5046934;28;20033;-75
2021/03/29 06:22:28;;;;;;;11.75;2.50;;;13.80;99.90;;;15.12;61.91;102496.09;5013507;28;20037;-72
2021/03/29 06:24:57;;;;;;;13.93;2.88;;;14.20;99.90;;;15.18;60.79;102489.84;5030245;28;20503;-74
2021/03/29 06:27:30;;;;;;;12.25;4.13;;;14.50;99.90;;;15.14;61.28;102500.31;5027793;28;20508;-72
2021/03/29 06:30:22;;;;;;;8.63;2.58;;;14.70;99.90;;;15.74;58.53;102491.00;5029561;28;20431;-70
2021/03/29 06:33:07;;;;;;;10.73;2.17;;;15.10;99.90;;;15.81;58.22;102496.53;5025458;28;20030;-70
2021/03/29 06:35:37;;;;;;;14.45;2.35;;;15.40;99.90;;;16.60;55.93;102509.13;5028572;28;20387;-71
2021/03/29 06:38:16;;;;;;;9.13;2.72;;;15.70;99.90;;;16.72;55.33;102490.22;5021077;28;20137;-73
2021/03/29 06:40:51;;;;;;;8.60;2.97;;;16.00;99.90;;;17.33;53.36;102510.50;5029022;28;20017;-70
2021/03/29 06:43:35;;;;;;;15.77;2.17;;;16.40;99.90;;;17.39;52.61;102508.81;5028287;28;20040;-69
2021/03/29 06:46:23;;;;;;;14.07;2.93;;;16.70;99.90;;;18.13;50.82;102506.13;5030424;28;20522;-72
2021/03/29 06:48:54;;;;;;;21.88;3.15;;;17.30;99.80;;;18.77;48.58;102522.06;5029159;28;20057;-70
2021/03/29 06:51:25;;;;;;;10.18;3.80;;;17.70;99.40;;;19.51;46.76;102516.22;5033432;28;20136;-65
2021/03/29 06:54:06;;;;;;;11.70;3.15;;;18.20;98.60;;;19.74;45.04;102515.69;5018423;28;20067;-69
2021/03/29 06:56:45;;;;;;;9.68;2.67;;;18.70;97.30;;;19.72;45.08;102518.66;5034230;28;20050;-68
2021/03/29 06:59:19;;;;;;;11.93;2.65;;;19.10;96.70;;;20.29;43.64;102525.97;5000407;28;20500;-69
2021/03/29 07:01:51;;;;;;;12.00;3.38;;;19.30;96.20;;;20.71;43.16;102533.75;5032742;28;20047;-69
2021/03/29 07:04:22;;;;;;;17.00;2.92;;;19.50;95.90;;;21.64;40.66;102534.47;5016828;28;20022;-69
2021/03/29 07:06:48;;;;;;;9.07;2.15;;;20.10;95.40;;;21.48;40.27;102543.41;5015208;28;20471;-70
2021/03/29 07:09:18;;;;;;;11.77;2.42;;;20.40;94.10;;;22.16;38.92;102548.72;5032995;28;20040;-70
2021/03/29 07:11:46;;;;;;;15.30;3.58;;;20.80;93.70;;;22.32;38.71;102545.28;5014632;28;20056;-70
2021/03/29 07:14:13;;;;;;;14.15;3.10;;;21.00;93.40;;;21.70;39.33;102551.00;5012482;28;20128;-68
2021/03/29 07:16:40;;;;;;;9.60;2.22;;;21.10;93.00;;;22.47;38.45;102553.97;5031749;28;20052;-71
2021/03/29 07:19:10;;;;;;;13.10;2.50;;;21.20;92.90;;;22.78;37.86;102564.84;5016130;28;20033;-70
2021/03/29 07:21:36;;;;;;;13.60;2.80;;;21.50;92.30;;;23.66;35.63;102558.28;5031962;28;20063;-72
2021/03/29 07:24:11;;;;;;;12.73;2.65;;;22.00;91.50;;;23.58;35.79;102575.34;5030894;28;20053;-72
2021/03/29 07:26:52;;;;;;;17.55;3.50;;;22.20;90.70;;;23.89;35.31;102582.38;5012757;28;20050;-70
2021/03/29 07:29:21;;;;;;;9.45;2.20;;;22.50;90.10;;;24.02;34.81;102576.53;5030849;28;20034;-72
2021/03/29 07:31:58;;;;;;;11.02;2.10;;;22.80;89.20;;;23.74;34.96;102585.69;5032848;28;20037;-70
2021/03/29 07:34:47;;;;;;;7.68;2.22;;;22.90;88.10;;;24.17;34.70;102581.53;5032218;28;20436;-71
2021/03/29 07:37:43;;;;;;;12.27;3.08;;;22.90;88.30;;;24.02;35.15;102587.66;5028789;28;20091;-71
2021/03/29 07:40:18;;;;;;;22.55;2.75;;;23.20;87.00;;;24.46;33.97;102587.97;5025595;28;20053;-73
2021/03/29 07:42:47;;;;;;;9.23;2.70;;;23.30;85.70;;;24.58;33.79;102597.94;5033324;28;20392;-70
2021/03/29 07:45:20;;;;;;;19.90;3.60;;;23.40;85.60;;;24.29;34.17;102592.66;5031800;28;20049;-70
2021/03/29 07:47:57;;;;;;;12.52;3.00;;;23.40;84.60;;;24.60;33.80;102601.31;5009982;28;20069;-70
2021/03/29 07:50:29;;;;;;;12.88;3.33;;;23.50;84.30;;;25.13;33.13;102604.75;5032570;28;20087;-72
2021/03/29 07:53:03;;;;;;;17.45;3.20;;;23.60;84.50;;;24.61;33.97;102600.22;5032874;28;20118;-71
2021/03/29 07:55:43;;;;;;;10.88;2.45;;;23.60;83.30;;;24.78;33.55;102619.75;5034106;28;20029;-71
2021/03/29 07:58:13;;;;;;;22.40;3.28;;;23.70;83.20;;;25.62;32.69;102625.31;5047077;28;20093;-70
2021/03/29 08:00:39;;;;;;;16.75;3.30;;;24.10;83.40;;;25.07;32.68;102620.53;5032691;28;20048;-73
2021/03/29 08:03:11;;;;;;;14.63;3.10;;;24.10;81.00;;;25.26;32.73;102626.69;5029693;28;20512;-70
2021/03/29 08:05:43;;;;;;;11.77;3.05;;;24.20;80.70;;;24.64;32.92;102640.66;5030448;28;20042;-70
2021/03/29 08:11:12;;;;;;;11.00;2.75;;;23.70;80.60;;;24.86;33.57;102633.25;5032732;28;20052;-69
2021/03/29 08:14:03;;;;;;;8.93;2.78;;;23.80;82.00;;;24.88;33.56;102625.50;5046795;28;20132;-73
2021/03/29 08:16:29;;;;;;;11.85;2.85;;;24.00;81.50;;;25.70;31.80;102632.38;5030519;28;20049;-70
2021/03/29 08:19:19;;;;;;;9.10;2.20;;;24.30;79.80;;;24.83;33.21;102638.50;5031873;28;20045;-69
2021/03/29 08:22:01;;;;;;;14.20;3.55;;;24.00;79.60;;;25.09;32.86;102634.22;5031732;28;20049;-70
2021/03/29 08:24:47;;;;;;;17.33;4.28;;;23.90;80.50;;;24.16;34.86;102650.25;5018693;28;20026;-71
2021/03/29 08:27:17;;;;;;;10.52;3.58;;;23.80;81.70;;;25.55;33.11;102660.88;5014351;28;20121;-72
2021/03/29 08:29:48;;;;;;;15.48;3.53;;;24.10;80.90;;;25.38;31.98;102655.31;5031630;28;20068;-71
2021/03/29 08:32:24;;;;;;;12.07;2.45;;;24.40;78.30;;;24.80;33.42;102653.78;5029920;28;20112;-71
2021/03/29 08:35:18;;;;;;;11.63;3.97;;;24.30;78.80;;;24.10;34.29;102678.25;5006753;28;20107;-70
2021/03/29 08:37:49;;;;;;;;;;;23.90;78.70;;;23.25;35.78;102664.06;4997115;28;20099;-70
2021/03/29 08:40:21;;;;;;;11.85;2.97;;;23.70;80.00;;;22.35;37.69;102681.59;5032855;28;19921;-68
2021/03/29 08:42:55;;;;;;;17.65;3.45;;;23.00;81.40;;;22.01;39.06;102674.78;5031463;28;20045;-68
2021/03/29 08:45:24;;;;;;;16.58;4.15;;;22.30;84.30;;;21.48;39.94;102682.81;5015355;28;20073;-70
2021/03/29 08:47:54;;;;;;;13.82;2.58;;;21.80;86.50;;;20.96;41.97;102682.19;5029409;28;20172;-69
2021/03/29 08:50:34;;;;;;;18.83;3.40;;;21.20;89.60;;;20.73;41.46;102694.91;5015349;28;20048;-72
2021/03/29 08:53:07;;;;;;;21.77;3.88;;;20.80;90.30;;;19.82;44.31;102695.91;5047373;28;20061;-70
2021/03/29 08:55:39;;;;;;;17.67;3.92;;;20.20;91.50;;;20.01;44.19;102704.34;5031663;28;20037;-69
2021/03/29 08:58:07;;;;;;;14.15;3.85;;;20.00;92.60;;;20.05;44.33;102703.72;5028459;28;20496;-67
2021/03/29 09:00:36;;;;;;;12.02;4.70;;;19.90;93.00;;;19.60;44.53;102699.16;5015404;28;20152;-72
2021/03/29 09:03:03;;;;;;;21.45;3.92;;;19.80;92.80;;;19.73;44.95;102711.03;5031654;28;20034;-71
2021/03/29 09:05:28;;;;;;;14.63;2.90;;;19.70;93.50;;;19.77;44.59;102714.19;5014280;28;20116;-69
2021/03/29 09:07:55;;;;;;;13.32;3.92;;;19.70;93.40;;;20.45;42.86;102704.41;5032520;28;20040;-70
2021/03/29 09:10:23;;;;;;;15.73;2.60;;;20.00;93.10;;;22.03;40.11;102714.25;5030030;28;20029;-70
2021/03/29 09:13:00;;;;;;;15.07;2.95;;;20.40;93.20;;;22.24;39.01;102714.84;5026281;28;20065;-70
2021/03/29 09:15:37;;;;;;;20.38;4.32;;;21.10;91.70;;;21.71;40.09;102712.66;5014391;28;20041;-70
2021/03/29 09:18:15;;;;;;;12.77;4.55;;;21.20;91.20;;;22.02;39.19;102715.31;5025640;28;20044;-72
2021/03/29 09:20:51;;;;;;;15.25;3.83;;;21.30;91.10;;;22.14;38.88;102720.94;5030995;28;20029;-73
2021/03/29 09:23:28;;;;;;;10.05;3.05;;;21.30;90.80;;;21.10;41.20;102721.72;5029356;28;20449;-69
2021/03/29 09:25:54;;;;;;;11.80;2.75;;;21.00;90.80;;;21.06;41.34;102726.00;5016376;28;20034;-72
2021/03/29 09:31:03;;;;;;;17.75;4.50;;;20.90;91.80;;;21.89;39.50;102740.41;5027713;28;20045;-71
2021/03/29 09:33:30;;;;;;;18.55;3.25;;;21.20;90.90;;;21.69;39.92;102742.53;5029415;28;20041;-69
2021/03/29 09:36:05;;;;;;;16.25;3.25;;;21.20;90.90;;;21.24;40.93;102742.69;5044119;28;20041;-70
2021/03/29 09:38:43;;;;;;;14.63;4.32;;;21.10;90.70;;;20.73;41.70;102748.34;5012862;28;20102;-69
2021/03/29 09:41:25;;;;;;;17.77;4.00;;;20.80;90.90;;;21.50;39.83;102743.56;5028672;28;20033;-69
2021/03/29 09:43:55;;;;;;;18.45;3.75;;;20.90;91.00;;;21.64;39.67;102750.69;5031119;28;20029;-69
2021/03/29 09:46:35;;;;;;;18.70;3.22;;;21.10;91.00;;;22.11;38.51;102756.66;5028637;28;20079;-69
2021/03/29 09:49:14;;;;;;;11.60;3.35;;;21.30;90.60;;;23.48;36.36;102764.97;5021154;28;20037;-68
2021/03/29 09:51:45;;;;;;;16.67;3.53;;;21.80;90.80;;;23.72;35.42;102762.22;5028194;28;20064;-69
2021/03/29 09:54:31;;;;;;;14.02;3.08;;;22.30;88.70;;;22.80;37.76;102768.16;5030228;28;20072;-70
2021/03/29 09:57:20;;;;;;;15.20;3.20;;;22.30;87.90;;;22.98;36.51;102769.19;5026837;28;20056;-70
2021/03/29 09:59:45;;;;;;;11.20;2.90;;;22.60;87.10;;;23.00;36.96;102761.50;5030743;28;20135;-71
2021/03/29 10:02:26;;;;;;;15.88;3.20;;;22.30;87.40;;;22.44;37.72;102759.88;5013351;28;20045;-73
2021/03/29 10:05:08;;;;;;;15.15;2.80;;;22.00;88.00;;;21.99;39.36;102762.97;5044322;28;20128;-73
2021/03/29 10:07:34;;;;;;;12.00;3.00;;;21.70;89.30;;;22.29;38.09;102759.41;5030754;28;20037;-71
2021/03/29 10:10:06;;;;;;;10.32;2.58;;;21.80;89.20;;;22.77;36.87;102757.53;5027369;28;20400;-70
2021/03/29 10:12:35;;;;;;;9.93;2.80;;;21.90;88.10;;;22.80;37.24;102745.94;5031671;28;20073;-73
2021/03/29 10:15:11;;;;;;;12.13;3.75;;;22.00;87.90;;;22.20;38.18;102752.47;5030219;28;20048;-71
2021/03/29 10:17:37;;;;;;;17.77;3.55;;;22.20;87.50;;;22.20;38.58;102755.25;5029055;28;20381;-72
2021/03/29 10:20:16;;;;;;;13.30;3.00;;;22.20;87.30;;;23.35;36.13;102754.09;5012006;28;20049;-71
2021/03/29 10:22:42;;;;;;;11.10;3.15;;;22.60;86.50;;;24.10;34.38;102750.59;5012009;28;20040;-72
2021/03/29 10:25:22;;;;;;;10.27;2.60;;;23.10;85.10;;;23.17;36.20;102762.50;5028747;28;20091;-70
2021/03/29 10:27:51;;;;;;;11.75;3.53;;;23.00;84.00;;;23.00;36.74;102759.56;5008837;28;20124;-72
2021/03/29 10:30:20;;;;;;;12.48;3.38;;;22.70;85.70;;;23.45;36.15;102756.28;5026828;28;20132;-70
2021/03/29 10:32:57;;;;;;;19.02;4.38;;;22.70;86.00;;;23.63;35.35;102766.47;5029305;28;20049;-71
2021/03/29 10:35:26;;;;;;;10.65;3.05;;;22.90;84.90;;;22.64;37.37;102757.69;5022633;28;20124;-71
2021/03/29 10:37:52;;;;;;;10.93;2.63;;;22.50;85.10;;;21.02;41.14;102755.19;5013231;28;20029;-70
2021/03/29 10:40:19;;;;;;;17.35;3.10;;;21.70;87.50;;;19.79;43.71;102751.63;5012426;28;20084;-68
2021/03/29 10:42:45;;;;;;;12.38;2.63;;;20.70;90.10;;;18.75;46.27;102762.34;5012073;28;20026;-69